Painter, Virginia
Current Conditions -  °F | °C
As of 10:15 AM on Thursday 23 Oct 2014 (Local Time) from KMFV Reporting Station
Overcast Overcast  
Wind Chill: 55°   Ceiling: 2600
Heat Index: 55°   Visibility: 10mi
Dew Point: 43°   Wind: 16mph
Humidity: 63%   Direction: 320°NW
Pressure: 29.84"   Gusts: 25mph
Location:  37.59°N, 75.78°W
Report Text: KMFV 231415Z AUTO 32014G22KT 10SM BKN026 BKN032 OVC047 13/06 A2984 RMK AO2
Loading
Personal Weather Stations






























Interactive Weather Map
Tropical Storm Tracking
New forecast layout! Learn more

10-Day Weather Forecast

Advertisements
Track Severe Weather on mobile